Time;durP1;ratioP1;P1;durP2;ratioP2;P2;SDS_P1;SDS_P2;PMS_P1;PMS_P2;Temp;Humidity;BMP_temperature;BMP_pressure;BME280_temperature;BME280_humidity;BME280_pressure;Samples;Min_cycle;Max_cycle;Signal;HPM_P1;HPM_P2
2022/09/01 00:01:19;;;;;;;6.88;2.00;;;17.70;99.90;;;;;;5072679;28;20444;-49
2022/09/01 00:03:51;;;;;;;8.85;2.08;;;17.70;99.90;;;;;;5073090;28;20047;-50
2022/09/01 00:06:21;;;;;;;9.77;1.85;;;17.70;99.90;;;;;;5073282;28;20033;-48
2022/09/01 00:08:51;;;;;;;7.75;1.65;;;17.70;99.90;;;;;;5073379;28;20430;-49
2022/09/01 00:11:17;;;;;;;6.78;1.42;;;17.70;99.90;;;;;;5073166;28;20025;-50
2022/09/01 00:13:43;;;;;;;14.60;2.58;;;17.80;99.90;;;;;;5073920;28;20021;-50
2022/09/01 00:16:12;;;;;;;10.05;2.15;;;17.70;99.90;;;;;;5073190;28;20391;-51
2022/09/01 00:18:40;;;;;;;8.13;1.50;;;17.80;99.90;;;;;;5072556;28;20016;-49
2022/09/01 00:21:09;;;;;;;11.88;1.85;;;17.80;99.90;;;;;;5074026;28;20035;-48
2022/09/01 00:23:35;;;;;;;6.70;1.70;;;17.80;99.90;;;;;;5072948;28;20473;-47
2022/09/01 00:26:00;;;;;;;7.03;1.65;;;17.90;99.90;;;;;;5073622;28;20270;-49
2022/09/01 00:28:26;;;;;;;8.38;1.70;;;17.90;99.90;;;;;;5073655;28;20024;-48
2022/09/01 00:30:52;;;;;;;12.15;1.92;;;17.90;99.90;;;;;;5073245;28;20529;-48
2022/09/01 00:33:18;;;;;;;10.60;1.90;;;17.90;99.90;;;;;;5073368;28;20028;-49
2022/09/01 00:35:43;;;;;;;6.68;2.05;;;17.90;99.90;;;;;;5073152;28;20063;-49
2022/09/01 00:38:09;;;;;;;10.23;2.00;;;17.90;99.90;;;;;;5072966;28;20059;-49
2022/09/01 00:40:35;;;;;;;10.85;1.95;;;17.90;99.90;;;;;;5073099;28;20036;-49
2022/09/01 00:43:14;;;;;;;10.57;1.70;;;17.90;99.90;;;;;;5073225;28;20543;-49
2022/09/01 00:45:41;;;;;;;10.43;1.80;;;17.90;99.90;;;;;;5072789;28;20021;-51
2022/09/01 00:48:08;;;;;;;15.07;2.28;;;17.90;99.90;;;;;;5072982;28;20040;-51
2022/09/01 00:50:34;;;;;;;10.43;1.90;;;17.90;99.90;;;;;;5072994;28;20494;-48
2022/09/01 00:53:01;;;;;;;6.60;1.95;;;17.90;99.90;;;;;;5072925;28;20048;-49
2022/09/01 00:55:31;;;;;;;9.90;1.58;;;17.90;99.90;;;;;;5072959;28;20086;-49
2022/09/01 00:58:00;;;;;;;11.65;2.08;;;17.90;99.90;;;;;;5072317;28;20021;-49
2022/09/01 01:00:28;;;;;;;5.70;1.40;;;18.00;99.90;;;;;;5072609;28;20056;-48
2022/09/01 01:02:55;;;;;;;10.70;1.97;;;18.00;99.90;;;;;;5071593;28;20012;-51
2022/09/01 01:05:33;;;;;;;10.57;1.83;;;18.00;99.90;;;;;;5071542;28;20783;-49
2022/09/01 01:08:00;;;;;;;11.15;2.00;;;18.10;99.90;;;;;;5071560;28;20520;-51
2022/09/01 01:10:32;;;;;;;8.65;1.92;;;18.10;99.90;;;;;;5071905;28;20039;-49
2022/09/01 01:13:00;;;;;;;9.38;2.10;;;18.10;99.90;;;;;;5071902;28;20081;-54
2022/09/01 01:15:27;;;;;;;12.83;2.20;;;18.20;99.90;;;;;;5071478;28;20066;-50
2022/09/01 01:17:53;;;;;;;8.00;1.85;;;18.20;99.90;;;;;;5072347;28;20024;-51
2022/09/01 01:23:23;;;;;;;8.38;1.85;;;18.20;99.90;;;;;;5072167;28;20035;-57
2022/09/01 01:25:53;;;;;;;10.55;1.63;;;18.20;99.90;;;;;;5072273;28;20340;-52
2022/09/01 01:28:24;;;;;;;14.65;2.05;;;18.30;99.90;;;;;;5071752;28;20487;-52
2022/09/01 01:30:53;;;;;;;9.48;1.75;;;18.10;99.90;;;;;;5072034;28;20067;-52
2022/09/01 01:33:21;;;;;;;;;;;18.10;99.90;;;;;;5072727;28;20028;-50
2022/09/01 01:35:47;;;;;;;9.82;1.90;;;18.00;99.90;;;;;;5072201;28;19908;-52
2022/09/01 01:38:15;;;;;;;6.75;1.58;;;18.00;99.90;;;;;;5072041;28;20478;-49
2022/09/01 01:40:41;;;;;;;14.25;2.67;;;18.00;99.90;;;;;;5070720;28;20800;-49
2022/09/01 01:43:07;;;;;;;6.25;1.65;;;17.90;99.90;;;;;;5071625;28;20028;-50
2022/09/01 01:45:34;;;;;;;10.63;1.77;;;18.00;99.90;;;;;;5071897;28;20028;-50
2022/09/01 01:48:07;;;;;;;11.60;1.90;;;17.90;99.90;;;;;;5072118;28;20064;-50
2022/09/01 01:50:34;;;;;;;16.98;3.72;;;17.90;99.90;;;;;;5072151;28;20115;-56
2022/09/01 01:53:02;;;;;;;10.70;2.00;;;17.90;99.90;;;;;;5071616;28;20044;-48
2022/09/01 01:55:29;;;;;;;11.30;2.13;;;17.90;99.90;;;;;;5071831;28;20036;-50
2022/09/01 01:57:56;;;;;;;11.95;2.10;;;17.90;99.90;;;;;;5070615;28;20161;-49
2022/09/01 02:00:33;;;;;;;13.52;1.80;;;17.90;99.90;;;;;;5071690;28;20025;-49
2022/09/01 02:03:00;;;;;;;10.43;2.03;;;18.00;99.90;;;;;;5071726;28;20032;-49
2022/09/01 02:05:31;;;;;;;11.65;1.90;;;18.00;99.90;;;;;;5071090;28;20016;-48
2022/09/01 02:08:02;;;;;;;7.22;1.95;;;18.00;99.90;;;;;;5070139;28;20552;-48
2022/09/01 02:10:32;;;;;;;9.43;2.00;;;18.00;99.90;;;;;;5069698;28;20046;-48
2022/09/01 02:13:04;;;;;;;10.15;1.88;;;18.10;99.90;;;;;;5070305;28;20028;-49
2022/09/01 02:15:37;;;;;;;7.05;1.73;;;18.10;99.90;;;;;;5070620;28;20029;-51
2022/09/01 02:18:04;;;;;;;8.05;1.63;;;17.50;99.90;;;;;;5070441;28;20420;-49
2022/09/01 02:20:31;;;;;;;7.30;1.77;;;18.00;99.90;;;;;;5070555;28;20033;-52
2022/09/01 02:23:06;;;;;;;10.68;2.03;;;18.10;99.90;;;;;;5071269;28;20032;-53
2022/09/01 02:25:33;;;;;;;9.38;1.90;;;18.10;99.90;;;;;;5071045;28;20100;-50
2022/09/01 02:27:59;;;;;;;11.70;1.70;;;18.10;99.90;;;;;;5070763;28;20024;-53
2022/09/01 02:30:25;;;;;;;6.65;1.70;;;18.00;99.90;;;;;;5071270;28;20032;-49
2022/09/01 02:32:50;;;;;;;10.52;1.85;;;18.00;99.90;;;;;;5070831;28;20028;-53
2022/09/01 02:35:17;;;;;;;8.00;2.10;;;18.00;99.90;;;;;;5071219;28;20020;-51
2022/09/01 02:37:48;;;;;;;7.45;1.67;;;18.00;99.90;;;;;;5057430;28;20044;-50
2022/09/01 02:40:14;;;;;;;8.65;1.98;;;18.00;99.90;;;;;;5071184;28;20062;-55
2022/09/01 02:42:42;;;;;;;10.70;1.90;;;18.00;99.90;;;;;;5070869;28;20356;-51
2022/09/01 02:45:14;;;;;;;7.20;1.85;;;18.00;99.90;;;;;;5070957;28;20016;-50
2022/09/01 02:47:44;;;;;;;9.80;2.30;;;18.00;99.90;;;;;;5070315;28;20044;-51
2022/09/01 02:50:12;;;;;;;9.63;1.77;;;18.00;99.90;;;;;;5071111;28;20035;-51
2022/09/01 02:52:39;;;;;;;7.88;1.92;;;18.00;99.90;;;;;;5070622;28;20052;-48
2022/09/01 02:55:06;;;;;;;10.88;2.10;;;18.10;99.90;;;;;;5070919;28;20472;-52
2022/09/01 02:57:33;;;;;;;10.82;1.80;;;18.00;99.90;;;;;;5068685;28;20174;-52
2022/09/01 02:59:59;;;;;;;8.90;1.67;;;18.10;99.90;;;;;;5070410;28;20031;-52
2022/09/01 03:02:27;;;;;;;10.10;2.00;;;18.10;99.90;;;;;;5070848;28;20024;-51
2022/09/01 03:04:54;;;;;;;9.52;2.38;;;18.10;99.90;;;;;;5070628;28;20033;-51
2022/09/01 03:07:22;;;;;;;12.23;1.85;;;18.10;99.90;;;;;;5070632;28;20047;-52
2022/09/01 03:09:48;;;;;;;8.25;1.90;;;18.10;99.90;;;;;;5070604;28;20009;-53
2022/09/01 03:12:14;;;;;;;6.55;1.67;;;18.10;99.90;;;;;;5069551;28;20035;-54
2022/09/01 03:14:39;;;;;;;13.32;2.05;;;18.10;99.90;;;;;;5069474;28;20104;-52
2022/09/01 03:17:05;;;;;;;8.05;2.05;;;18.10;99.90;;;;;;5069627;28;20067;-54
2022/09/01 03:19:43;;;;;;;9.15;1.83;;;18.20;99.90;;;;;;5069692;28;20141;-49
2022/09/01 03:22:09;;;;;;;8.55;2.15;;;18.20;99.90;;;;;;5073796;28;20026;-55
2022/09/01 03:24:35;;;;;;;11.52;1.95;;;18.20;99.90;;;;;;5074062;28;20112;-50
2022/09/01 03:27:00;;;;;;;10.63;1.88;;;18.20;99.90;;;;;;5074350;28;20131;-49
2022/09/01 03:29:26;;;;;;;8.15;1.88;;;18.20;99.90;;;;;;5074679;28;20447;-52
2022/09/01 03:31:52;;;;;;;13.55;2.53;;;18.20;99.90;;;;;;5074090;28;20020;-50
2022/09/01 03:34:20;;;;;;;8.10;1.60;;;18.20;99.90;;;;;;5074059;28;20055;-49
2022/09/01 03:36:49;;;;;;;9.40;2.92;;;18.20;99.90;;;;;;5073851;28;20028;-49
2022/09/01 03:39:17;;;;;;;8.63;2.13;;;18.20;99.90;;;;;;5074273;28;20471;-51
2022/09/01 03:41:43;;;;;;;11.90;2.30;;;18.20;99.90;;;;;;5074218;28;20390;-53
2022/09/01 03:44:10;;;;;;;9.15;2.15;;;18.30;99.90;;;;;;5074402;28;20016;-51
2022/09/01 03:46:39;;;;;;;11.40;2.15;;;18.30;99.90;;;;;;5074010;28;20395;-52
2022/09/01 03:49:14;;;;;;;8.23;2.10;;;18.20;99.90;;;;;;5074113;28;20361;-52
2022/09/01 03:51:42;;;;;;;9.35;2.00;;;18.20;99.90;;;;;;5073733;28;20114;-49
2022/09/01 03:54:08;;;;;;;9.57;1.85;;;18.20;99.90;;;;;;5073945;28;20388;-53
2022/09/01 03:56:34;;;;;;;9.18;1.98;;;18.20;99.90;;;;;;5073819;28;20043;-47
2022/09/01 03:59:00;;;;;;;9.73;1.70;;;18.20;99.90;;;;;;5073668;28;20028;-49
2022/09/01 04:01:28;;;;;;;7.97;1.90;;;18.20;99.90;;;;;;5073647;28;20398;-49
2022/09/01 04:03:54;;;;;;;10.70;2.33;;;18.20;99.90;;;;;;5072391;28;20028;-50
2022/09/01 04:06:22;;;;;;;7.70;1.65;;;18.10;99.90;;;;;;5073787;28;20040;-52
2022/09/01 04:08:51;;;;;;;9.07;2.00;;;18.10;99.90;;;;;;5074020;28;20387;-50
2022/09/01 04:11:22;;;;;;;11.45;2.03;;;18.10;99.90;;;;;;5073780;28;20068;-53
2022/09/01 04:13:48;;;;;;;8.90;2.10;;;18.20;99.90;;;;;;5073607;28;20029;-50
2022/09/01 04:19:24;;;;;;;11.07;1.95;;;18.10;99.90;;;;;;5072747;28;20044;-48
2022/09/01 04:21:55;;;;;;;6.82;1.77;;;18.10;99.90;;;;;;5072613;28;20041;-49
2022/09/01 04:24:23;;;;;;;8.07;1.80;;;18.10;99.90;;;;;;5072587;28;20025;-51
2022/09/01 04:26:50;;;;;;;4.85;1.55;;;18.10;99.90;;;;;;5072641;28;20027;-53
2022/09/01 04:29:18;;;;;;;11.68;2.53;;;18.10;99.90;;;;;;5073030;28;20033;-49
2022/09/01 04:31:47;;;;;;;10.52;1.83;;;18.10;99.90;;;;;;5072961;28;20037;-52
2022/09/01 04:34:13;;;;;;;6.15;1.67;;;18.10;99.90;;;;;;5073201;28;20383;-49
2022/09/01 04:36:43;;;;;;;11.98;1.98;;;18.10;99.90;;;;;;5072192;28;20031;-52
2022/09/01 04:39:11;;;;;;;9.00;1.60;;;18.20;99.90;;;;;;5072935;28;20505;-51
2022/09/01 04:41:44;;;;;;;7.60;2.05;;;18.10;99.90;;;;;;5072640;28;20024;-52
2022/09/01 04:44:10;;;;;;;9.60;2.03;;;18.10;99.90;;;;;;5073182;28;20542;-50
2022/09/01 04:46:41;;;;;;;8.15;2.00;;;18.10;99.90;;;;;;5072815;28;20058;-49
2022/09/01 04:49:10;;;;;;;5.32;1.73;;;18.10;99.90;;;;;;5073030;28;20028;-52
2022/09/01 04:51:41;;;;;;;17.08;2.00;;;18.10;99.90;;;;;;5072929;28;20052;-51
2022/09/01 04:54:13;;;;;;;6.85;1.70;;;18.10;99.90;;;;;;5073020;28;20469;-53
2022/09/01 04:56:42;;;;;;;8.63;1.83;;;18.10;99.90;;;;;;5071937;28;20066;-53
2022/09/01 04:59:09;;;;;;;8.50;2.10;;;18.30;99.90;;;;;;5073024;28;20028;-52
2022/09/01 05:01:42;;;;;;;7.78;1.45;;;18.10;99.90;;;;;;5072853;28;20505;-55
2022/09/01 05:04:13;;;;;;;11.23;2.35;;;18.20;99.90;;;;;;5072866;28;20035;-53
2022/09/01 05:06:41;;;;;;;10.32;2.10;;;18.20;99.90;;;;;;5072426;28;20332;-49
2022/09/01 05:09:08;;;;;;;10.93;1.67;;;18.20;99.90;;;;;;5072633;28;20078;-49
2022/09/01 05:11:36;;;;;;;11.32;2.13;;;18.20;99.90;;;;;;5072755;28;20122;-51
2022/09/01 05:14:04;;;;;;;7.13;1.70;;;18.20;99.90;;;;;;5072430;28;20025;-51
2022/09/01 05:16:31;;;;;;;10.05;1.65;;;18.20;99.90;;;;;;5072207;28;20048;-49
2022/09/01 05:18:57;;;;;;;12.23;1.90;;;18.20;99.90;;;;;;5066378;28;20025;-48
2022/09/01 05:21:27;;;;;;;12.02;1.70;;;18.30;99.90;;;;;;5071215;28;20024;-49
2022/09/01 05:23:53;;;;;;;12.85;2.45;;;18.30;99.90;;;;;;5071496;28;20062;-48
2022/09/01 05:26:22;;;;;;;11.20;2.35;;;18.30;99.90;;;;;;5071135;28;20544;-48
2022/09/01 05:28:52;;;;;;;8.30;1.83;;;18.30;99.90;;;;;;5071587;28;20027;-51
2022/09/01 05:31:18;;;;;;;8.20;2.05;;;18.30;99.90;;;;;;5071866;28;20055;-51
2022/09/01 05:33:47;;;;;;;11.57;1.98;;;18.30;99.90;;;;;;5072224;28;20396;-55
2022/09/01 05:36:16;;;;;;;12.43;2.13;;;19.00;99.90;;;;;;5071465;28;20028;-52
2022/09/01 05:38:42;;;;;;;;;;;18.30;99.90;;;;;;5072678;28;20044;-51
2022/09/01 05:41:13;;;;;;;10.00;1.85;;;18.30;99.90;;;;;;5071976;28;20075;-53
2022/09/01 05:43:45;;;;;;;7.45;1.83;;;18.30;99.90;;;;;;5071490;28;20043;-48
2022/09/01 05:46:16;;;;;;;10.32;2.00;;;18.30;99.90;;;;;;5071233;28;20125;-49
2022/09/01 05:48:48;;;;;;;6.40;1.50;;;18.30;99.90;;;;;;5071648;28;20626;-52
2022/09/01 05:51:16;;;;;;;14.93;2.75;;;18.30;99.90;;;;;;5071718;28;20029;-48
2022/09/01 05:53:42;;;;;;;11.65;2.65;;;18.20;99.90;;;;;;5071898;28;20173;-48
2022/09/01 05:56:13;;;;;;;9.57;2.65;;;18.10;99.90;;;;;;5071198;28;20546;-49
2022/09/01 05:58:42;;;;;;;11.73;2.03;;;18.00;99.90;;;;;;5071216;28;20029;-48
2022/09/01 06:01:09;;;;;;;9.77;2.13;;;17.90;99.90;;;;;;5071521;28;20024;-50
2022/09/01 06:03:36;;;;;;;9.05;2.08;;;17.90;99.90;;;;;;5071295;28;20100;-48
2022/09/01 06:06:11;;;;;;;9.43;2.20;;;18.20;99.90;;;;;;5070878;28;20431;-50
2022/09/01 06:08:37;;;;;;;9.70;2.10;;;18.00;99.90;;;;;;5071463;28;20035;-52
2022/09/01 06:11:11;;;;;;;7.43;2.00;;;17.90;99.90;;;;;;5071348;28;20015;-52
2022/09/01 06:13:40;;;;;;;7.32;2.45;;;18.10;99.90;;;;;;5071460;28;20399;-51
2022/09/01 06:16:07;;;;;;;9.23;1.77;;;18.10;99.90;;;;;;5071160;28;20024;-50
2022/09/01 06:18:34;;;;;;;7.90;2.17;;;18.20;99.90;;;;;;5071346;28;20399;-52
2022/09/01 06:21:03;;;;;;;9.68;2.47;;;18.20;99.90;;;;;;5069819;28;20032;-48
2022/09/01 06:23:30;;;;;;;7.35;2.03;;;18.20;99.90;;;;;;5071351;28;20035;-50
2022/09/01 06:25:57;;;;;;;9.43;2.30;;;18.20;99.90;;;;;;5069817;28;20032;-49
2022/09/01 06:28:23;;;;;;;11.60;2.10;;;18.20;99.90;;;;;;5070144;28;20038;-52
2022/09/01 06:30:50;;;;;;;8.88;2.22;;;18.20;99.90;;;;;;5068923;28;20028;-51
2022/09/01 06:33:18;;;;;;;8.70;2.10;;;18.30;99.90;;;;;;5070156;28;20024;-47
2022/09/01 06:35:45;;;;;;;10.13;2.28;;;18.30;99.90;;;;;;5070111;28;20029;-48
2022/09/01 06:38:14;;;;;;;7.25;1.73;;;18.30;99.90;;;;;;5070587;28;20502;-50
2022/09/01 06:40:40;;;;;;;5.82;1.60;;;18.40;99.90;;;;;;5070512;28;20476;-49
2022/09/01 06:43:10;;;;;;;9.43;1.70;;;18.50;99.90;;;;;;5070894;28;20120;-51
2022/09/01 06:45:43;;;;;;;6.90;1.77;;;18.50;99.90;;;;;;5070739;28;20082;-48
2022/09/01 06:48:12;;;;;;;7.40;1.70;;;18.40;99.90;;;;;;5070390;28;20032;-48
2022/09/01 06:50:38;;;;;;;8.68;1.77;;;18.40;99.90;;;;;;5071104;28;20032;-48
2022/09/01 06:53:09;;;;;;;9.63;2.05;;;18.40;99.90;;;;;;5070296;28;20044;-49
2022/09/01 06:55:37;;;;;;;10.68;2.10;;;18.40;99.90;;;;;;5070183;28;20035;-47
2022/09/01 06:58:08;;;;;;;6.90;1.77;;;18.40;99.90;;;;;;5070996;28;20043;-49
2022/09/01 07:00:38;;;;;;;9.98;1.70;;;18.40;99.90;;;;;;5070824;28;20036;-49
2022/09/01 07:03:07;;;;;;;9.05;1.90;;;18.40;99.90;;;;;;5071048;28;20036;-48
2022/09/01 07:05:33;;;;;;;6.90;2.13;;;18.60;99.90;;;;;;5070478;28;20028;-50
2022/09/01 07:07:58;;;;;;;4.80;1.77;;;18.80;99.90;;;;;;5070336;28;20039;-51
2022/09/01 07:10:26;;;;;;;7.95;1.67;;;18.90;99.90;;;;;;5069505;28;20060;-48
2022/09/01 07:12:58;;;;;;;5.78;1.65;;;19.10;99.90;;;;;;5070769;28;20548;-48
2022/09/01 07:15:24;;;;;;;5.13;1.75;;;19.50;99.90;;;;;;5071100;28;20029;-47
2022/09/01 07:17:52;;;;;;;4.93;1.63;;;19.80;99.90;;;;;;5070977;28;20020;-51
2022/09/01 07:20:20;;;;;;;8.90;1.83;;;20.10;99.90;;;;;;5070883;28;20025;-50
2022/09/01 07:22:48;;;;;;;6.55;2.75;;;20.30;99.90;;;;;;5070617;28;20028;-48
2022/09/01 07:25:16;;;;;;;9.05;1.70;;;20.40;99.90;;;;;;5070415;28;20472;-49
2022/09/01 07:27:47;;;;;;;6.65;1.38;;;21.00;99.90;;;;;;5069960;28;20054;-50
2022/09/01 07:30:14;;;;;;;5.88;1.58;;;21.60;99.90;;;;;;5069847;28;20025;-49
2022/09/01 07:32:43;;;;;;;5.78;1.40;;;22.00;99.90;;;;;;5069421;28;20043;-52
2022/09/01 07:35:11;;;;;;;6.22;1.45;;;22.10;99.90;;;;;;5069863;28;20474;-49
2022/09/01 07:37:36;;;;;;;8.25;1.90;;;21.90;99.90;;;;;;5069880;28;20033;-48
2022/09/01 07:40:08;;;;;;;6.53;1.65;;;21.90;99.90;;;;;;5069709;28;20021;-49
2022/09/01 07:42:34;;;;;;;8.63;1.90;;;21.80;99.90;;;;;;5070123;28;20036;-53
2022/09/01 07:45:07;;;;;;;4.50;1.40;;;21.60;99.90;;;;;;5069891;28;20029;-49
2022/09/01 07:47:35;;;;;;;6.18;1.52;;;21.40;99.90;;;;;;5064111;28;20049;-47
2022/09/01 07:50:07;;;;;;;9.82;2.10;;;21.20;99.90;;;;;;5067857;28;20055;-52
2022/09/01 07:52:36;;;;;;;6.93;1.55;;;20.80;99.90;;;;;;5069460;28;20052;-49
2022/09/01 07:55:03;;;;;;;4.60;1.77;;;20.60;99.90;;;;;;5070330;28;20029;-52
2022/09/01 07:57:30;;;;;;;4.80;1.42;;;20.60;99.90;;;;;;5069988;28;20074;-49
2022/09/01 07:59:56;;;;;;;6.47;1.67;;;20.50;99.90;;;;;;5070100;28;20106;-51
2022/09/01 08:02:23;;;;;;;7.18;1.67;;;20.70;99.90;;;;;;5065409;28;20098;-48
2022/09/01 08:04:49;;;;;;;6.18;1.52;;;20.80;99.90;;;;;;5067886;28;20108;-48
2022/09/01 08:07:15;;;;;;;5.00;1.40;;;20.80;99.90;;;;;;5069734;28;20116;-52
2022/09/01 08:09:41;;;;;;;5.13;1.73;;;20.80;99.90;;;;;;5073382;28;20195;-51
2022/09/01 08:12:07;;;;;;;8.45;1.73;;;21.10;99.90;;;;;;5069087;28;20065;-50
2022/09/01 08:14:33;;;;;;;5.53;1.83;;;21.10;99.90;;;;;;5072472;28;20477;-51
2022/09/01 08:16:59;;;;;;;5.57;1.40;;;21.10;99.90;;;;;;5072642;28;20056;-48
2022/09/01 08:19:25;;;;;;;6.22;1.60;;;21.00;99.90;;;;;;5063233;28;20036;-50
2022/09/01 08:21:50;;;;;;;4.68;1.52;;;20.90;99.90;;;;;;5064094;28;20104;-50
2022/09/01 08:24:16;;;;;;;3.70;1.50;;;20.90;99.90;;;;;;5070096;28;20034;-49
2022/09/01 08:26:41;;;;;;;4.50;1.77;;;20.80;99.90;;;;;;5071490;28;20033;-49
2022/09/01 08:29:09;;;;;;;4.15;1.30;;;20.90;99.90;;;;;;5070068;28;20020;-45
2022/09/01 08:31:34;;;;;;;4.72;1.42;;;20.90;99.90;;;;;;5071504;28;20438;-48
2022/09/01 08:34:03;;;;;;;5.45;1.70;;;21.10;99.90;;;;;;5070567;28;20028;-46
2022/09/01 08:36:29;;;;;;;4.78;1.42;;;21.00;99.90;;;;;;5066673;28;20483;-49
2022/09/01 08:38:55;;;;;;;4.88;1.42;;;20.90;99.90;;;;;;5068044;28;20045;-47
2022/09/01 08:41:36;;;;;;;5.13;1.60;;;20.90;99.90;;;;;;5067087;28;20071;-47
2022/09/01 08:44:14;;;;;;;8.55;1.65;;;20.70;99.90;;;;;;5070767;28;20030;-47
2022/09/01 08:46:42;;;;;;;5.88;1.70;;;20.70;99.90;;;;;;5066768;28;20036;-51
2022/09/01 08:49:23;;;;;;;4.65;1.55;;;20.70;99.90;;;;;;5071294;28;20040;-51
2022/09/01 08:52:21;;;;;;;3.58;1.48;;;20.70;99.90;;;;;;5071823;28;20119;-53
2022/09/01 08:54:48;;;;;;;4.47;1.47;;;20.80;99.90;;;;;;5068451;28;20098;-49
2022/09/01 08:57:22;;;;;;;7.40;1.80;;;20.80;99.90;;;;;;5071626;28;20668;-48
2022/09/01 08:59:48;;;;;;;6.45;2.15;;;20.90;99.90;;;;;;5072925;28;20017;-50
2022/09/01 09:02:26;;;;;;;4.82;1.48;;;20.90;99.90;;;;;;5068070;28;20400;-47
2022/09/01 09:05:38;;;;;;;4.85;1.60;;;21.20;99.90;;;;;;5066967;28;20391;-46
2022/09/01 09:08:35;;;;;;;5.97;1.70;;;21.60;99.90;;;;;;5056520;28;20048;-47
2022/09/01 09:11:05;;;;;;;4.05;1.58;;;22.00;99.90;;;;;;5071855;28;20541;-47
2022/09/01 09:13:49;;;;;;;8.73;1.90;;;21.80;99.90;;;;;;5058903;28;20024;-48
2022/09/01 09:16:22;;;;;;;4.75;1.60;;;21.70;99.90;;;;;;5071339;28;20118;-49
2022/09/01 09:18:52;;;;;;;7.30;1.65;;;21.50;99.90;;;;;;5069884;28;20471;-48
2022/09/01 09:21:41;;;;;;;8.82;2.00;;;21.30;99.90;;;;;;5072083;28;20101;-50
2022/09/01 09:24:25;;;;;;;8.93;1.50;;;21.60;99.90;;;;;;5066848;28;20017;-47
2022/09/01 09:26:57;;;;;;;5.93;1.58;;;22.40;99.90;;;;;;5071017;28;20039;-51
2022/09/01 09:29:24;;;;;;;6.00;1.80;;;23.90;98.20;;;;;;5072265;28;20031;-51
2022/09/01 09:32:04;;;;;;;8.43;1.55;;;24.00;98.50;;;;;;5072275;28;20028;-50
2022/09/01 09:34:31;;;;;;;5.25;1.45;;;24.40;97.50;;;;;;5072026;28;20024;-50
2022/09/01 09:37:18;;;;;;;7.47;1.80;;;24.70;97.10;;;;;;5071909;28;20048;-49
2022/09/01 09:39:44;;;;;;;5.60;1.27;;;25.20;95.50;;;;;;5071065;28;20467;-47
2022/09/01 09:42:12;;;;;;;4.57;1.60;;;25.80;95.50;;;;;;5070901;28;20020;-47
2022/09/01 09:44:51;;;;;;;5.95;1.55;;;24.70;95.90;;;;;;5066531;28;20016;-51
2022/09/01 09:47:50;;;;;;;8.85;1.60;;;24.60;95.20;;;;;;5064623;28;20054;-47
2022/09/01 09:50:18;;;;;;;;;;;24.60;95.30;;;;;;5027698;28;20096;-46
2022/09/01 09:52:45;;;;;;;5.28;1.50;;;24.20;95.60;;;;;;5063520;28;19927;-49
2022/09/01 09:55:27;;;;;;;9.45;1.60;;;24.00;95.70;;;;;;5071095;28;20127;-50
2022/09/01 09:58:08;;;;;;;4.53;1.38;;;23.80;96.10;;;;;;5075658;28;20028;-46
2022/09/01 10:00:34;;;;;;;9.23;1.75;;;23.50;97.20;;;;;;5070415;28;20555;-47
2022/09/01 10:03:02;;;;;;;5.40;1.60;;;23.10;97.50;;;;;;5060608;28;20139;-47
2022/09/01 10:05:37;;;;;;;6.72;1.70;;;23.70;97.80;;;;;;5070735;28;20039;-47
2022/09/01 10:08:07;;;;;;;8.50;1.88;;;24.70;96.00;;;;;;5071516;28;20040;-52
2022/09/01 10:10:44;;;;;;;7.18;1.58;;;25.30;94.70;;;;;;5071669;28;20067;-50
2022/09/01 10:13:16;;;;;;;7.85;2.15;;;26.30;95.60;;;;;;5074534;28;20047;-52
2022/09/01 10:15:52;;;;;;;5.93;1.60;;;25.90;92.30;;;;;;5071171;28;20070;-47
2022/09/01 10:18:20;;;;;;;7.35;1.92;;;26.30;92.60;;;;;;5065538;28;20035;-48
2022/09/01 10:21:13;;;;;;;4.53;1.77;;;26.10;92.40;;;;;;5070530;28;20031;-49
2022/09/01 10:23:40;;;;;;;3.13;1.38;;;26.40;92.40;;;;;;5070856;28;20103;-48
2022/09/01 10:26:27;;;;;;;8.20;1.52;;;27.40;93.80;;;;;;5071057;28;20037;-48
2022/09/01 10:29:05;;;;;;;7.00;1.73;;;27.90;89.10;;;;;;5068110;28;20070;-50
2022/09/01 10:31:30;;;;;;;6.38;1.70;;;27.20;89.60;;;;;;5067760;28;20040;-49
2022/09/01 10:33:57;;;;;;;7.63;2.00;;;27.80;90.20;;;;;;5068050;28;20024;-48
2022/09/01 10:36:23;;;;;;;5.72;1.88;;;28.00;90.00;;;;;;5066830;28;20023;-48
2022/09/01 10:38:49;;;;;;;5.35;1.83;;;27.80;88.60;;;;;;5069721;28;20542;-51
2022/09/01 10:41:55;;;;;;;9.80;1.75;;;26.70;89.80;;;;;;5069772;28;20138;-50
2022/09/01 10:44:32;;;;;;;4.95;1.60;;;26.30;90.60;;;;;;5067469;28;20017;-50
2022/09/01 10:47:03;;;;;;;7.43;1.90;;;26.00;90.90;;;;;;5067331;28;20037;-47
2022/09/01 10:49:28;;;;;;;6.65;2.05;;;26.20;90.80;;;;;;5066945;28;20100;-47
2022/09/01 10:51:58;;;;;;;5.18;1.65;;;26.10;91.00;;;;;;5070318;28;20076;-48
2022/09/01 10:54:39;;;;;;;9.07;3.00;;;26.20;90.50;;;;;;5071842;28;20033;-49
2022/09/01 10:57:21;;;;;;;9.27;1.73;;;26.30;91.20;;;;;;5066584;28;20028;-51
2022/09/01 10:59:47;;;;;;;6.18;1.52;;;26.60;90.60;;;;;;5061167;28;20479;-50
2022/09/01 11:02:19;;;;;;;5.18;1.48;;;26.40;90.00;;;;;;5069457;28;20113;-50
2022/09/01 11:04:45;;;;;;;5.70;1.60;;;26.10;90.40;;;;;;5081082;28;20093;-48
2022/09/01 11:07:20;;;;;;;4.35;1.48;;;25.60;90.60;;;;;;5070988;28;20036;-49
2022/09/01 11:10:14;;;;;;;4.13;1.55;;;25.50;91.40;;;;;;5068846;28;20051;-47
2022/09/01 11:13:03;;;;;;;5.47;1.35;;;25.40;90.10;;;;;;5077826;28;20032;-46
2022/09/01 11:15:34;;;;;;;;;;;25.90;90.50;;;;;;5069117;28;20373;-49
2022/09/01 11:18:01;;;;;;;4.70;1.85;;;26.10;89.40;;;;;;5072821;28;19915;-47
2022/09/01 11:20:37;;;;;;;7.45;1.77;;;26.80;91.00;;;;;;5070681;28;20048;-51
2022/09/01 11:23:25;;;;;;;4.90;1.90;;;27.50;88.60;;;;;;5068385;28;20086;-53
2022/09/01 11:25:54;;;;;;;6.93;1.70;;;28.20;87.90;;;;;;5072053;28;20039;-49
2022/09/01 11:28:23;;;;;;;5.78;1.90;;;27.80;84.30;;;;;;5078080;28;20029;-48
2022/09/01 11:31:13;;;;;;;5.72;1.88;;;28.10;86.10;;;;;;5062309;28;20146;-50
2022/09/01 11:33:51;;;;;;;7.47;2.08;;;27.90;85.20;;;;;;5068125;28;20036;-48
2022/09/01 11:36:25;;;;;;;6.55;1.65;;;28.90;84.60;;;;;;5067273;28;20042;-48
2022/09/01 11:38:50;;;;;;;4.97;1.75;;;29.30;84.70;;;;;;5059745;28;20498;-47
2022/09/01 11:41:33;;;;;;;4.07;1.67;;;29.50;79.80;;;;;;5070986;28;20051;-53
2022/09/01 11:44:00;;;;;;;6.30;2.05;;;28.40;80.10;;;;;;5074533;28;20017;-52
2022/09/01 11:46:33;;;;;;;4.63;2.10;;;27.80;83.80;;;;;;5064975;28;20137;-49
2022/09/01 11:49:06;;;;;;;8.77;1.90;;;27.40;83.30;;;;;;5081127;28;20103;-49
2022/09/01 11:51:45;;;;;;;6.57;1.95;;;27.50;85.60;;;;;;5072866;28;20040;-50
2022/09/01 11:54:12;;;;;;;;;;;27.40;84.80;;;;;;5069819;28;20052;-48
2022/09/01 11:56:37;;;;;;;10.30;2.25;;;27.70;82.10;;;;;;5074474;28;19909;-46
2022/09/01 11:59:03;;;;;;;4.50;1.95;;;27.30;83.60;;;;;;5066592;28;20024;-49
2022/09/01 12:01:29;;;;;;;7.43;2.10;;;27.00;82.90;;;;;;5065643;28;20025;-49
2022/09/01 12:03:54;;;;;;;8.75;2.13;;;26.70;82.60;;;;;;5071063;28;20077;-48
2022/09/01 12:06:24;;;;;;;5.50;2.17;;;26.60;84.70;;;;;;5074728;28;20064;-48
2022/09/01 12:08:58;;;;;;;6.30;1.90;;;27.40;84.60;;;;;;5074621;28;20392;-48
2022/09/01 12:11:33;;;;;;;4.18;1.88;;;27.80;80.60;;;;;;5074220;28;20028;-48
2022/09/01 12:14:05;;;;;;;6.22;2.05;;;28.30;82.90;;;;;;5074220;28;20020;-52
2022/09/01 12:16:33;;;;;;;5.38;2.25;;;28.90;80.30;;;;;;5069870;28;20044;-48
2022/09/01 12:19:00;;;;;;;5.55;2.20;;;28.00;77.90;;;;;;5069855;28;20032;-50
2022/09/01 12:21:37;;;;;;;4.53;2.25;;;28.00;79.80;;;;;;5066717;28;20145;-49
2022/09/01 12:24:22;;;;;;;7.30;2.58;;;28.10;78.80;;;;;;5067371;28;20032;-48
2022/09/01 12:26:53;;;;;;;5.22;2.08;;;28.50;79.30;;;;;;5064246;28;20101;-52
2022/09/01 12:29:18;;;;;;;3.75;2.10;;;28.10;76.40;;;;;;5070111;28;20024;-48
2022/09/01 12:31:47;;;;;;;7.45;2.58;;;28.60;78.70;;;;;;5073652;28;20102;-47
2022/09/01 12:34:43;;;;;;;4.93;2.28;;;28.50;77.70;;;;;;5068035;28;20036;-46
2022/09/01 12:37:09;;;;;;;5.72;2.15;;;28.50;76.30;;;;;;5068029;28;20029;-49
2022/09/01 12:39:44;;;;;;;5.53;2.10;;;28.90;77.40;;;;;;5070128;28;20021;-48
2022/09/01 12:42:26;;;;;;;5.18;2.40;;;28.50;76.10;;;;;;5068736;28;20063;-48
2022/09/01 12:45:01;;;;;;;5.80;2.45;;;28.50;78.30;;;;;;5071648;28;20032;-48
2022/09/01 12:47:33;;;;;;;4.50;2.38;;;28.40;76.70;;;;;;5072861;28;20127;-47
2022/09/01 12:50:26;;;;;;;4.88;2.40;;;28.10;76.90;;;;;;5072899;28;20016;-46
2022/09/01 12:52:55;;;;;;;9.63;3.53;;;27.40;77.70;;;;;;5071541;28;20071;-49
2022/09/01 12:55:24;;;;;;;8.93;2.78;;;26.80;78.30;;;;;;5071662;28;20430;-53
2022/09/01 12:57:51;;;;;;;;;;;26.40;80.00;;;;;;5069082;28;20059;-51
2022/09/01 13:00:23;;;;;;;4.68;2.55;;;26.20;82.10;;;;;;5059159;28;20367;-47
2022/09/01 13:02:49;;;;;;;4.72;2.72;;;26.20;84.50;;;;;;5067773;28;20483;-55
2022/09/01 13:05:30;;;;;;;6.30;2.40;;;26.40;82.80;;;;;;5071575;28;20044;-50
2022/09/01 13:08:00;;;;;;;4.35;2.17;;;26.70;85.40;;;;;;5060284;28;20068;-50